Time;durP1;ratioP1;P1;durP2;ratioP2;P2;SDS_P1;SDS_P2;PMS_P1;PMS_P2;Temp;Humidity;BMP_temperature;BMP_pressure;BME280_temperature;BME280_humidity;BME280_pressure;Samples;Min_cycle;Max_cycle;Signal;HPM_P1;HPM_P2
2023/12/10 09:14:22;;;;;;;13.48;2.80;;;;;;;7.89;72.45;96378.31;4902367;23;20332;-79
2023/12/10 09:16:49;;;;;;;15.30;2.90;;;;;;;7.96;72.93;96371.47;4941868;29;20048;-81
2023/12/10 09:19:21;;;;;;;16.67;3.00;;;;;;;8.02;73.07;96379.41;4940412;29;20055;-79
2023/12/10 09:21:49;;;;;;;10.60;3.10;;;;;;;8.10;71.83;96383.75;4939648;29;20130;-79
2023/12/10 09:24:17;;;;;;;12.63;2.58;;;;;;;8.18;71.47;96381.09;4937925;29;20304;-81
2023/12/10 09:26:44;;;;;;;14.68;3.10;;;;;;;8.23;71.34;96381.38;4939912;29;20054;-81
2023/12/10 09:29:12;;;;;;;11.82;2.17;;;;;;;8.28;71.72;96387.84;4922806;29;20052;-80
2023/12/10 09:31:41;;;;;;;16.27;3.47;;;;;;;8.32;71.08;96389.94;4928889;29;20087;-81
2023/12/10 09:34:11;;;;;;;11.13;2.42;;;;;;;8.34;70.80;96392.38;5008737;23;20123;-81
2023/12/10 09:36:39;;;;;;;8.93;1.92;;;;;;;8.42;72.18;96381.97;4937889;29;20126;-80
2023/12/10 09:39:07;;;;;;;19.30;8.25;;;;;;;8.48;70.98;96388.22;4941758;29;20139;-81
2023/12/10 09:41:34;;;;;;;18.05;6.53;;;;;;;8.53;70.81;96389.34;4928729;29;20056;-80
2023/12/10 09:44:02;;;;;;;13.18;2.67;;;;;;;8.55;70.14;96402.16;4925579;29;20107;-80
2023/12/10 09:46:31;;;;;;;10.15;2.33;;;;;;;8.54;71.21;96403.94;4926795;29;20076;-80
2023/12/10 09:49:01;;;;;;;16.80;3.05;;;;;;;8.54;71.10;96414.34;4920248;29;20059;-81
2023/12/10 09:51:29;;;;;;;13.55;2.58;;;;;;;8.49;71.09;96403.66;4920304;29;20505;-79
2023/12/10 09:53:57;;;;;;;10.50;2.65;;;;;;;8.43;70.77;96407.75;4919648;29;20056;-81
2023/12/10 09:56:24;;;;;;;10.50;2.40;;;;;;;8.39;71.64;96413.44;4923735;29;20044;-81
2023/12/10 09:58:52;;;;;;;12.70;3.65;;;;;;;8.35;71.70;96420.78;4925716;29;20076;-81
2023/12/10 10:01:20;;;;;;;11.93;2.65;;;;;;;8.33;71.44;96406.31;4941552;29;20107;-81
2023/12/10 10:03:47;;;;;;;9.05;2.50;;;;;;;8.31;71.25;96414.31;4930337;29;20080;-81
2023/12/10 10:06:17;;;;;;;12.57;2.33;;;;;;;8.34;71.99;96407.97;4933645;29;20062;-81
2023/12/10 10:08:44;;;;;;;17.85;3.15;;;;;;;8.32;72.72;96415.91;4940574;29;20080;-81
2023/12/10 10:11:12;;;;;;;11.10;2.83;;;;;;;8.30;72.28;96412.69;4952775;29;20059;-81
2023/12/10 10:13:51;;;;;;;8.02;2.15;;;;;;;8.28;73.71;96416.44;5361673;23;20071;-80
2023/12/10 10:16:19;;;;;;;12.98;3.15;;;;;;;8.22;73.04;96426.56;5247082;23;20064;-81
2023/12/10 10:18:48;;;;;;;8.85;2.15;;;;;;;8.21;72.97;96430.13;4940817;29;20040;-81
2023/12/10 10:21:17;;;;;;;13.15;2.58;;;;;;;8.19;71.80;96437.25;4936939;29;20051;-81
2023/12/10 10:23:45;;;;;;;8.85;2.05;;;;;;;8.18;71.89;96427.88;4932043;29;20127;-81
2023/12/10 10:26:13;;;;;;;11.77;2.40;;;;;;;8.13;72.06;96427.56;4925968;29;20071;-81
2023/12/10 10:28:41;;;;;;;10.48;2.10;;;;;;;8.14;72.65;96433.56;4918425;29;20045;-81
2023/12/10 10:31:10;;;;;;;10.43;3.20;;;;;;;8.17;73.25;96423.63;4903324;29;20662;-81
2023/12/10 10:33:40;;;;;;;11.75;2.30;;;;;;;8.19;72.22;96413.06;4915855;29;20074;-80
2023/12/10 10:36:08;;;;;;;8.15;2.60;;;;;;;8.18;73.02;96420.06;4921530;29;20504;-81
2023/12/10 10:38:37;;;;;;;13.30;2.63;;;;;;;8.21;72.27;96427.50;4926760;29;20048;-80
2023/12/10 10:41:05;;;;;;;11.57;2.60;;;;;;;8.21;72.13;96424.91;4917191;29;20055;-79
2023/12/10 10:43:33;;;;;;;20.30;7.93;;;;;;;8.25;73.86;96418.41;4915586;29;20049;-81
2023/12/10 10:46:00;;;;;;;40.08;20.88;;;;;;;8.30;74.92;96422.28;4905781;29;20496;-80
2023/12/10 10:48:29;;;;;;;14.15;4.05;;;;;;;8.32;73.93;96415.91;4899593;29;20058;-79
2023/12/10 11:12:56;;;;;;;10.03;2.83;;;;;;;8.46;74.50;96427.38;5363402;23;20876;-82
2023/12/10 11:15:29;;;;;;;8.88;2.00;;;;;;;8.58;74.32;96426.03;4936147;29;20060;-81
2023/12/10 11:22:27;;;;;;;11.88;3.25;;;;;;;8.92;72.60;96423.97;4880039;29;20051;-82
2023/12/10 11:47:51;;;;;;;8.80;1.95;;;;;;;9.18;70.32;96421.81;4859669;29;20052;-81
2023/12/10 12:00:28;;;;;;;5.95;1.95;;;;;;;9.63;69.89;96424.44;5137768;23;20095;-80
2023/12/10 12:03:54;;;;;;;6.45;1.90;;;;;;;9.74;71.78;96429.19;4920171;29;20086;-81
2023/12/10 12:06:37;;;;;;;;;;;;;;;9.92;70.12;96433.22;4941419;29;20047;-80
2023/12/10 12:09:10;;;;;;;6.38;1.38;;;;;;;10.03;70.45;96432.75;4956590;29;19930;-80
2023/12/10 12:11:43;;;;;;;15.68;5.18;;;;;;;10.07;68.80;96431.41;4947154;29;20055;-80
2023/12/10 12:14:15;;;;;;;11.70;3.47;;;;;;;10.08;67.75;96433.84;4940544;29;20052;-80
2023/12/10 12:19:31;;;;;;;5.53;1.45;;;;;;;10.06;67.57;96420.19;4940126;29;20347;-81
2023/12/10 12:23:04;;;;;;;7.63;2.20;;;;;;;10.00;67.17;96414.88;4949108;29;20059;-82
